Wetterdaten: Mrz 2010
Datum Temp. A. Feuchte A. Luftdruck Regen Wind Richtung Taupunkt Windchill Windben
01.03.2010 7,3 C 66 % 1011,6 hPa 0,0 l/m 1,5 km/h SW 0,8 C 7,3 C 1,5 km/h
02.03.2010 4,4 C 88 % 1019,8 hPa 2,8 l/m 1,7 km/h SO 2,5 C 4,3 C 1,7 km/h
03.03.2010 4,4 C 50 % 1011,9 hPa 0,0 l/m 10,5 km/h NO -6,5 C 0,9 C 10,5 km/h
04.03.2010 3,5 C 57 % 1013,9 hPa 0,0 l/m 1,4 km/h N-NO -4,3 C 3,5 C 1,4 km/h
05.03.2010 -1,4 C 64 % 1022,6 hPa 0,0 l/m 0,0 km/h NO -8,1 C -1,4 C 0,0 km/h
06.03.2010 0,3 C 77 % 1018,0 hPa 1,4 l/m 13,3 km/h N-NO -3,3 C -4,3 C 7,4 km/h
07.03.2010 -1,0 C 55 % 1021,1 hPa 0,0 l/m 5,7 km/h NO -9,3 C -3,3 C 3,2 km/h
08.03.2010 -1,1 C 53 % 1017,6 hPa 0,0 l/m 8,6 km/h NO -10,0 C -4,3 C 4,8 km/h
09.03.2010 -0,7 C 50 % 1016,2 hPa 0,0 l/m 7,8 km/h N-NO -9,9 C -4,4 C 4,3 km/h
10.03.2010 1,5 C 46 % 1012,4 hPa 0,0 l/m 0,5 km/h NO -9,1 C 1,5 C 0,3 km/h
11.03.2010 -1,0 C 85 % 1014,0 hPa 1,1 l/m 0,0 km/h NW -3,3 C -1,0 C 0,0 km/h
12.03.2010 -0,7 C 80 % 1019,0 hPa 0,7 l/m 0,5 km/h NW -4,1 C -0,7 C 0,3 km/h
13.03.2010 3,3 C 76 % 1024,8 hPa 0,0 l/m 0,3 km/h O-SO -0,9 C 3,3 C 0,2 km/h
14.03.2010 3,6 C 79 % 1024,5 hPa 0,0 l/m 2,8 km/h SO 0,3 C 3,6 C 1,6 km/h
15.03.2010 4,8 C 85 % 1024,0 hPa 2,5 l/m 0,0 km/h SO 2,3 C 4,8 C 0,0 km/h
16.03.2010 5,4 C 80 % 1025,8 hPa 3,9 l/m 6,0 km/h O-SO 1,8 C 3,9 C 3,3 km/h
17.03.2010 7,0 C 68 % 1025,2 hPa 0,0 l/m 4,6 km/h O-SO 0,6 C 6,9 C 2,5 km/h
18.03.2010 9,6 C 56 % 1021,3 hPa 0,0 l/m 3,1 km/h O-NO 0,3 C 9,3 C 1,7 km/h
19.03.2010 13,0 C 57 % 1018,1 hPa 0,0 l/m 13,1 km/h S-SW 4,2 C 10,2 C 7,3 km/h
20.03.2010 12,7 C 80 % 1014,2 hPa 1,1 l/m 9,3 km/h W-SW 9,2 C 10,2 C 5,1 km/h
21.03.2010 12,1 C 78 % 1018,2 hPa 1,1 l/m 13,3 km/h W-SW 8,3 C 8,9 C 7,4 km/h
22.03.2010 9,4 C 75 % 1019,3 hPa 0,0 l/m 0,2 km/h NO 4,6 C 9,4 C 0,1 km/h
23.03.2010 10,4 C 70 % 1016,3 hPa 0,0 l/m 0,0 km/h O-NO 4,1 C 10,4 C 0,0 km/h
24.03.2010 12,9 C 66 % 1010,1 hPa 0,0 l/m 1,9 km/h NO 5,7 C 12,9 C 1,1 km/h
25.03.2010 13,9 C 63 % 1006,6 hPa 0,0 l/m 5,0 km/h SO 6,4 C 13,5 C 2,8 km/h
26.03.2010 8,6 C 81 % 1009,3 hPa 0,0 l/m 10,2 km/h SW 5,6 C 5,7 C 5,7 km/h
27.03.2010 8,1 C 83 % 1008,0 hPa 1,8 l/m 10,1 km/h W-SW 5,2 C 4,9 C 5,6 km/h
Min-Datum 08.03.10 18.03.10 26.03.10 9 Tage 01.03.10 - 08.03.10 06.03.10 01.03.10
Min-Zeit 06:53 15:53 08:53 - 14:53 - 06:53 07:53 14:53
Minimum -8,6 C 26 % 1002,8 hPa - 0,0 km/h - -13,2 C -18,7 C 0,0 km/h
Max-Datum 24.03.10 03.03.10 17.03.10 16.03.10 06.03.10 - 21.03.10 24.03.10 06.03.10
Max-Zeit 14:53 09:53 01:53 06:53 07:53 - 14:53 14:53 07:53
Maximum 26,4 C 95 % 1027,4 hPa 3,9 l/m 53,1 km/h
N-NO
- 11,8 C 26,4 C 29,5 km/h
N-NO
Durchschnitt 5,6 C 69 % 1017,2 hPa #16,4 l/m 4,9 km/h NO -0,3 C 4,3 C 2,9 km/h

Durchschnitt Minimum Temp.0,2 C
Durchschnitt Maximum Temp.14,0 C